Time;durP1;ratioP1;P1;durP2;ratioP2;P2;SDS_P1;SDS_P2;PMS_P1;PMS_P2;Temp;Humidity;BMP_temperature;BMP_pressure;BME280_temperature;BME280_humidity;BME280_pressure;Samples;Min_cycle;Max_cycle;Signal;HPM_P1;HPM_P2
2022/09/03 00:00:22;;;;;;;0.20;0.20;;;20.30;99.10;21.50;100935.00;;;;5016078;28;20610;-80
2022/09/03 00:03:07;;;;;;;0.10;0.10;;;20.30;99.10;21.60;100905.00;;;;5016107;28;20704;-80
2022/09/03 00:05:40;;;;;;;0.20;0.20;;;20.30;99.60;21.10;100930.00;;;;5014677;28;20305;-80
2022/09/03 00:08:19;;;;;;;0.10;0.10;;;20.20;99.70;21.50;100900.00;;;;5014474;28;20272;-81
2022/09/03 00:11:05;;;;;;;0.20;0.20;;;20.20;99.90;21.00;100921.00;;;;5015798;28;20264;-80
2022/09/03 00:13:41;;;;;;;0.20;0.20;;;20.20;99.90;21.30;100927.00;;;;5014663;28;20197;-81
2022/09/03 00:16:11;;;;;;;0.10;0.10;;;20.10;99.90;21.30;100910.00;;;;5014243;28;20522;-80
2022/09/03 00:19:14;;;;;;;0.40;0.40;;;20.00;99.90;21.20;100888.00;;;;5015648;28;20269;-80
2022/09/03 00:21:46;;;;;;;0.77;0.70;;;20.10;99.90;21.30;100908.00;;;;5014819;28;20229;-78
2022/09/03 00:24:17;;;;;;;0.10;0.10;;;20.20;99.90;21.40;100902.00;;;;5030767;28;20187;-78
2022/09/03 00:26:50;;;;;;;1.03;0.57;;;20.20;99.90;21.30;100917.00;;;;5030818;28;20182;-78
2022/09/03 00:29:24;;;;;;;0.10;0.10;;;20.10;99.90;21.60;100912.00;;;;5030034;28;20609;-80
2022/09/03 00:31:56;;;;;;;0.28;0.28;;;20.20;99.90;21.40;100907.00;;;;5030547;28;20207;-81
2022/09/03 00:34:33;;;;;;;0.35;0.35;;;20.20;99.90;21.20;100911.00;;;;5013015;28;20623;-79
2022/09/03 00:36:59;;;;;;;0.20;0.20;;;20.10;99.90;21.60;100916.00;;;;4997720;28;20226;-80
2022/09/03 00:39:27;;;;;;;0.10;0.10;;;20.30;99.90;21.40;100913.00;;;;5013057;28;20245;-80
2022/09/03 00:42:31;;;;;;;0.17;0.17;;;20.20;99.90;21.30;100921.00;;;;5013988;28;20207;-79
2022/09/03 00:45:24;;;;;;;0.10;0.10;;;20.20;99.90;21.20;100919.00;;;;5030748;28;20268;-79
2022/09/03 00:48:21;;;;;;;0.20;0.20;;;20.00;99.90;21.30;100914.00;;;;5030433;28;20173;-80
2022/09/03 00:51:17;;;;;;;0.10;0.10;;;20.00;99.90;21.70;100924.00;;;;5030274;28;20265;-79
2022/09/03 00:54:34;;;;;;;0.10;0.10;;;20.20;99.90;21.40;100905.00;;;;5014574;28;20166;-80
2022/09/03 00:57:09;;;;;;;0.10;0.10;;;20.20;99.90;21.50;100920.00;;;;5014258;28;20229;-79
2022/09/03 00:59:56;;;;;;;0.10;0.10;;;20.30;99.90;21.30;100947.00;;;;5015176;28;20171;-80
2022/09/03 01:02:53;;;;;;;0.20;0.20;;;20.20;99.90;21.20;100927.00;;;;5015345;28;20221;-80
2022/09/03 01:05:52;;;;;;;0.25;0.25;;;20.10;99.90;21.30;100931.00;;;;5013663;28;20186;-80
2022/09/03 01:08:49;;;;;;;0.20;0.20;;;20.20;99.90;21.40;100936.00;;;;5004822;28;21301;-81
2022/09/03 01:11:52;;;;;;;0.15;0.15;;;20.10;99.90;21.20;100929.00;;;;5014495;28;20280;-80
2022/09/03 01:14:44;;;;;;;0.73;0.73;;;20.10;99.90;21.10;100919.00;;;;4997282;28;20193;-80
2022/09/03 01:17:27;;;;;;;0.43;0.43;;;20.00;99.90;21.00;100925.00;;;;5014555;28;20179;-81
2022/09/03 01:20:42;;;;;;;0.20;0.20;;;19.90;99.90;20.90;100920.00;;;;5013395;28;20643;-81
2022/09/03 01:23:54;;;;;;;0.20;0.20;;;19.90;99.90;21.30;100891.00;;;;5013651;28;20293;-81
2022/09/03 01:26:53;;;;;;;0.10;0.10;;;20.00;99.90;21.30;100933.00;;;;4996972;28;20236;-80
2022/09/03 01:29:52;;;;;;;0.10;0.10;;;20.10;99.90;21.20;100935.00;;;;5014478;28;20179;-81
2022/09/03 01:32:44;;;;;;;0.20;0.20;;;20.00;99.90;21.40;100941.00;;;;5012828;28;20226;-81
2022/09/03 01:35:51;;;;;;;0.10;0.10;;;20.10;99.90;21.40;100915.00;;;;5029663;28;20178;-80
2022/09/03 01:44:43;;;;;;;0.20;0.20;;;20.10;99.90;21.60;100933.00;;;;5032897;28;20184;-69
2022/09/03 01:47:33;;;;;;;0.10;0.10;;;20.10;99.90;21.80;100924.00;;;;5032874;28;20223;-70
2022/09/03 01:50:56;;;;;;;0.17;0.17;;;20.20;99.90;21.40;100900.00;;;;5032462;28;20274;-69
2022/09/03 01:54:18;;;;;;;0.97;0.30;;;20.20;99.90;21.10;100880.00;;;;5033871;28;20187;-69
2022/09/03 01:57:27;;;;;;;0.10;0.10;;;20.00;99.90;21.50;100920.00;;;;5032541;28;20168;-72
2022/09/03 02:00:12;;;;;;;0.10;0.10;;;20.00;99.90;21.20;100878.00;;;;5033693;28;20541;-71
2022/09/03 02:02:42;;;;;;;0.10;0.10;;;20.00;99.90;21.30;100910.00;;;;5032141;28;20643;-71
2022/09/03 02:05:10;;;;;;;0.10;0.10;;;20.00;99.90;21.40;100878.00;;;;5032577;28;20191;-72
2022/09/03 02:08:01;;;;;;;0.10;0.10;;;20.00;99.90;21.20;100914.00;;;;5031756;28;20177;-71
2022/09/03 02:10:52;;;;;;;0.10;0.10;;;19.90;99.90;21.00;100912.00;;;;5033436;28;20193;-71
2022/09/03 02:13:36;;;;;;;0.20;0.20;;;19.80;99.90;21.30;100923.00;;;;5032519;28;20212;-72
2022/09/03 02:16:13;;;;;;;0.10;0.10;;;19.80;99.90;21.40;100927.00;;;;5033086;28;20186;-72
2022/09/03 02:18:45;;;;;;;0.30;0.30;;;19.90;99.90;20.90;100919.00;;;;5032404;28;20251;-71
2022/09/03 02:21:16;;;;;;;0.40;0.40;;;19.80;99.90;20.80;100920.00;;;;5031982;28;20188;-71
2022/09/03 02:23:45;;;;;;;0.20;0.20;;;19.60;99.90;20.50;100897.00;;;;5032094;28;20198;-71
2022/09/03 02:26:16;;;;;;;0.10;0.10;;;19.50;99.90;20.50;100919.00;;;;5031272;28;20628;-72
2022/09/03 02:28:44;;;;;;;0.10;0.10;;;19.50;99.90;20.80;100918.00;;;;5015739;28;20188;-71
2022/09/03 02:31:09;;;;;;;0.10;0.10;;;19.50;99.90;20.90;100927.00;;;;5032009;28;20551;-72
2022/09/03 02:33:44;;;;;;;0.10;0.10;;;19.60;99.90;20.90;100936.00;;;;5031305;28;20185;-72
2022/09/03 02:36:14;;;;;;;0.83;0.83;;;19.60;99.90;21.10;100936.00;;;;5030990;28;20194;-72
2022/09/03 02:38:45;;;;;;;0.40;0.40;;;19.80;99.90;21.20;100924.00;;;;5031824;28;20278;-71
2022/09/03 02:41:12;;;;;;;0.20;0.20;;;19.80;99.90;21.40;100917.00;;;;5032401;28;20204;-71
2022/09/03 02:43:58;;;;;;;0.10;0.10;;;19.90;99.90;21.10;100931.00;;;;5031108;28;20181;-72
2022/09/03 02:46:31;;;;;;;0.10;0.10;;;19.80;99.90;21.20;100923.00;;;;5015350;28;20270;-71
2022/09/03 02:48:57;;;;;;;0.10;0.10;;;19.70;99.90;21.30;100915.00;;;;5031905;28;20658;-71
2022/09/03 02:51:23;;;;;;;0.10;0.10;;;19.70;99.90;21.30;100920.00;;;;5032002;28;20216;-71
2022/09/03 02:53:52;;;;;;;0.10;0.10;;;19.80;99.90;20.60;100917.00;;;;5032958;28;20185;-71
2022/09/03 02:56:18;;;;;;;0.10;0.10;;;19.60;99.90;20.60;100924.00;;;;5031676;28;20169;-72
2022/09/03 02:58:44;;;;;;;0.20;0.20;;;19.40;99.90;20.70;100905.00;;;;5031473;28;20643;-72
2022/09/03 03:01:10;;;;;;;0.17;0.17;;;19.40;99.90;21.00;100907.00;;;;5031959;28;20188;-72
2022/09/03 03:03:38;;;;;;;0.20;0.20;;;19.50;99.90;20.90;100910.00;;;;5030362;28;20184;-73
2022/09/03 03:06:05;;;;;;;0.47;0.47;;;19.50;99.90;20.80;100922.00;;;;5031642;28;20554;-73
2022/09/03 03:08:33;;;;;;;0.10;0.10;;;19.40;99.90;20.60;100913.00;;;;5032783;28;20181;-73
2022/09/03 03:10:59;;;;;;;0.10;0.10;;;19.50;99.90;20.90;100916.00;;;;5015032;28;20235;-73
2022/09/03 03:13:27;;;;;;;0.20;0.20;;;19.40;99.90;20.60;100915.00;;;;5031352;28;20209;-73
2022/09/03 03:16:05;;;;;;;0.10;0.10;;;19.40;99.90;20.60;100920.00;;;;5031233;28;20182;-73
2022/09/03 03:18:32;;;;;;;0.10;0.10;;;19.40;99.90;20.60;100904.00;;;;5016600;28;20179;-72
2022/09/03 03:21:11;;;;;;;0.10;0.10;;;19.20;99.90;21.10;100912.00;;;;5035495;28;20186;-72
2022/09/03 03:23:38;;;;;;;0.10;0.10;;;19.40;99.90;20.90;100928.00;;;;5035066;28;20556;-73
2022/09/03 03:26:09;;;;;;;0.22;0.22;;;19.50;99.90;20.80;100923.00;;;;5035059;28;20648;-73
2022/09/03 03:28:36;;;;;;;0.10;0.10;;;19.50;99.90;20.70;100933.00;;;;5034603;28;20176;-73
2022/09/03 03:31:08;;;;;;;0.10;0.10;;;19.50;99.90;21.00;100920.00;;;;5018514;28;20185;-73
2022/09/03 03:33:35;;;;;;;0.20;0.20;;;19.60;99.90;20.90;100917.00;;;;5035153;28;20181;-73
2022/09/03 03:36:13;;;;;;;0.10;0.10;;;19.50;99.90;21.00;100890.00;;;;5036509;28;20179;-73
2022/09/03 03:38:43;;;;;;;0.20;0.20;;;19.50;99.90;20.80;100917.00;;;;5034900;28;20309;-73
2022/09/03 03:41:14;;;;;;;0.10;0.10;;;19.50;99.90;20.60;100921.00;;;;5035276;28;20250;-73
2022/09/03 03:43:40;;;;;;;0.20;0.20;;;19.50;99.90;20.90;100915.00;;;;5034405;28;20257;-73
2022/09/03 03:46:06;;;;;;;0.10;0.10;;;19.50;99.90;20.70;100877.00;;;;5035264;28;20176;-72
2022/09/03 03:48:36;;;;;;;0.10;0.10;;;19.40;99.90;20.80;100924.00;;;;5034825;28;20185;-72
2022/09/03 03:51:08;;;;;;;0.10;0.10;;;19.30;99.90;20.30;100928.00;;;;5035085;28;20642;-72
2022/09/03 03:53:37;;;;;;;0.23;0.23;;;19.20;99.90;20.70;100927.00;;;;5035978;28;20190;-71
2022/09/03 03:56:08;;;;;;;0.10;0.10;;;19.20;99.90;20.90;100925.00;;;;5018446;28;20629;-71
2022/09/03 03:58:34;;;;;;;0.10;0.10;;;19.50;99.90;20.90;100908.00;;;;5034801;28;20189;-72
2022/09/03 04:01:06;;;;;;;0.40;0.40;;;19.40;99.90;20.60;100913.00;;;;5034293;28;20556;-71
2022/09/03 04:03:36;;;;;;;0.50;0.50;;;19.50;99.90;20.00;100916.00;;;;5034710;28;20180;-71
2022/09/03 04:06:03;;;;;;;0.93;0.93;;;19.20;99.90;19.70;100924.00;;;;5034540;28;20699;-71
2022/09/03 04:08:33;;;;;;;0.20;0.20;;;18.90;99.90;19.70;100922.00;;;;5034489;28;20189;-71
2022/09/03 04:11:01;;;;;;;0.20;0.20;;;18.70;99.90;19.70;100925.00;;;;5033634;28;20187;-70
2022/09/03 04:13:35;;;;;;;2.30;2.20;;;18.70;99.90;19.60;100920.00;;;;5032786;28;20238;-70
2022/09/03 04:16:14;;;;;;;0.10;0.10;;;18.70;99.90;19.70;100925.00;;;;5032529;28;20173;-73
2022/09/03 04:18:41;;;;;;;0.10;0.10;;;18.70;99.90;19.80;100925.00;;;;5033241;28;20188;-71
2022/09/03 04:21:11;;;;;;;0.10;0.10;;;18.70;99.90;19.90;100913.00;;;;5033951;28;20194;-71
2022/09/03 04:23:40;;;;;;;0.10;0.10;;;18.80;99.90;19.80;100911.00;;;;5034112;28;20625;-71
2022/09/03 04:26:09;;;;;;;0.10;0.10;;;18.70;99.90;20.10;100866.00;;;;5035553;28;20175;-71
2022/09/03 04:28:36;;;;;;;0.10;0.10;;;18.80;99.90;20.10;100905.00;;;;5033699;28;20243;-71
2022/09/03 04:31:05;;;;;;;0.10;0.10;;;18.90;99.90;20.30;100914.00;;;;5034030;28;20187;-71
2022/09/03 04:33:32;;;;;;;0.10;0.10;;;19.00;99.90;20.60;100915.00;;;;5033287;28;20571;-71
2022/09/03 04:36:14;;;;;;;0.10;0.10;;;19.10;99.90;20.80;100909.00;;;;5033669;28;20183;-71
2022/09/03 04:38:43;;;;;;;0.10;0.10;;;19.30;99.90;21.00;100911.00;;;;5034012;28;20187;-71
2022/09/03 04:41:15;;;;;;;3.80;1.03;;;19.40;99.90;20.70;100908.00;;;;5034060;28;20580;-71
2022/09/03 04:43:42;;;;;;;0.10;0.10;;;19.40;99.90;20.70;100905.00;;;;5033560;28;20583;-72
2022/09/03 04:46:10;;;;;;;0.10;0.10;;;19.30;99.90;21.00;100872.00;;;;5016791;28;20188;-72
2022/09/03 04:48:40;;;;;;;0.10;0.10;;;19.50;99.90;21.10;100917.00;;;;5033639;28;20184;-72
2022/09/03 04:51:12;;;;;;;0.10;0.10;;;19.70;99.90;21.10;100907.00;;;;5033464;28;20190;-72
2022/09/03 04:53:45;;;;;;;0.10;0.10;;;19.60;99.90;21.00;100890.00;;;;5033908;28;20554;-71
2022/09/03 04:56:26;;;;;;;0.10;0.10;;;19.60;99.90;20.90;100901.00;;;;5033602;28;20180;-72
2022/09/03 04:58:58;;;;;;;0.10;0.10;;;19.50;99.90;20.90;100909.00;;;;5016719;28;20580;-71
2022/09/03 05:01:30;;;;;;;0.10;0.10;;;19.40;99.90;21.10;100907.00;;;;5021983;28;20620;-71
2022/09/03 05:03:56;;;;;;;0.13;0.13;;;19.40;99.90;20.80;100873.00;;;;5013942;28;20178;-71
2022/09/03 05:06:24;;;;;;;0.20;0.20;;;19.40;99.90;21.20;100903.00;;;;5013442;28;20184;-71
2022/09/03 05:08:54;;;;;;;0.10;0.10;;;19.50;99.90;20.90;100867.00;;;;5013659;28;20232;-71
2022/09/03 05:11:22;;;;;;;0.10;0.10;;;19.60;99.90;20.90;100903.00;;;;5013309;28;20192;-71
2022/09/03 05:13:50;;;;;;;0.20;0.20;;;19.60;99.90;20.90;100895.00;;;;4997126;28;20184;-71
2022/09/03 05:16:18;;;;;;;0.10;0.10;;;19.50;99.90;21.20;100910.00;;;;5013473;28;20168;-71
2022/09/03 05:18:45;;;;;;;1.20;0.30;;;19.60;99.90;21.10;100893.00;;;;5013606;28;20184;-71
2022/09/03 05:21:15;;;;;;;0.20;0.20;;;19.60;99.90;20.60;100909.00;;;;5013458;28;20186;-71
2022/09/03 05:23:44;;;;;;;0.50;0.50;;;19.50;99.90;20.50;100909.00;;;;5014878;28;20291;-71
2022/09/03 05:26:21;;;;;;;0.23;0.23;;;19.30;99.90;20.50;100895.00;;;;5029246;28;20184;-71
2022/09/03 05:28:52;;;;;;;0.10;0.10;;;19.20;99.90;20.50;100897.00;;;;5014539;28;20196;-70
2022/09/03 05:31:19;;;;;;;0.10;0.10;;;19.10;99.90;20.60;100890.00;;;;5013060;28;20223;-71
2022/09/03 05:33:49;;;;;;;0.10;0.10;;;19.20;99.90;20.80;100907.00;;;;5012693;28;20176;-70
2022/09/03 05:36:24;;;;;;;0.70;0.70;;;19.30;99.90;20.00;100874.00;;;;5014680;28;20192;-70
2022/09/03 05:38:54;;;;;;;0.20;0.20;;;19.20;99.90;19.90;100844.00;;;;5011219;28;20617;-70
2022/09/03 05:41:21;;;;;;;0.10;0.10;;;18.90;99.90;20.00;100836.00;;;;5012016;28;20218;-71
2022/09/03 05:43:57;;;;;;;0.10;0.10;;;18.90;99.90;20.80;100895.00;;;;5013106;28;20184;-70
2022/09/03 05:46:30;;;;;;;0.10;0.10;;;19.10;99.90;20.80;100893.00;;;;5013798;28;20184;-71
2022/09/03 05:49:02;;;;;;;0.20;0.20;;;19.40;99.90;20.70;100890.00;;;;5012872;28;20180;-71
2022/09/03 05:51:29;;;;;;;0.10;0.10;;;19.30;99.90;20.70;100856.00;;;;5029005;28;20644;-71
2022/09/03 05:53:58;;;;;;;0.10;0.10;;;19.20;99.90;20.50;100888.00;;;;5013143;28;20193;-71
2022/09/03 05:56:27;;;;;;;0.10;0.10;;;19.30;99.90;21.10;100903.00;;;;4994992;28;20807;-71
2022/09/03 05:58:57;;;;;;;0.10;0.10;;;19.40;99.90;20.90;100903.00;;;;5013057;28;20292;-71
2022/09/03 06:01:36;;;;;;;0.20;0.20;;;19.50;99.90;21.30;100895.00;;;;5012393;28;20268;-71
2022/09/03 06:04:11;;;;;;;0.10;0.10;;;19.60;99.90;21.00;100905.00;;;;5011160;28;20191;-71
2022/09/03 06:06:40;;;;;;;0.10;0.10;;;19.60;99.90;21.00;100893.00;;;;5012637;28;20307;-71
2022/09/03 06:09:16;;;;;;;0.47;0.47;;;19.60;99.90;21.30;100902.00;;;;5012697;28;20214;-71
2022/09/03 06:11:44;;;;;;;0.10;0.10;;;19.70;99.90;21.40;100894.00;;;;5011971;28;20203;-72
2022/09/03 06:14:13;;;;;;;0.43;0.43;;;19.80;99.90;21.70;100908.00;;;;5012639;28;20185;-72
2022/09/03 06:16:42;;;;;;;0.20;0.20;;;20.00;99.90;21.40;100901.00;;;;5011466;28;20196;-72
2022/09/03 06:19:09;;;;;;;0.20;0.20;;;19.90;99.90;21.60;100900.00;;;;5012419;28;20174;-71
2022/09/03 06:21:41;;;;;;;0.13;0.13;;;20.00;99.90;21.60;100911.00;;;;5029000;28;20308;-72
2022/09/03 06:24:13;;;;;;;0.10;0.10;;;20.20;99.90;21.40;100874.00;;;;5012201;28;20185;-72
2022/09/03 06:26:42;;;;;;;0.10;0.10;;;20.00;99.90;21.40;100907.00;;;;5012477;28;20192;-71
2022/09/03 06:29:11;;;;;;;0.20;0.20;;;20.00;99.90;21.30;100900.00;;;;5011947;28;20191;-71
2022/09/03 06:31:39;;;;;;;0.20;0.20;;;19.90;99.90;21.50;100906.00;;;;5013510;28;20206;-71
2022/09/03 06:34:05;;;;;;;0.10;0.10;;;20.00;99.90;21.60;100919.00;;;;5012409;28;20178;-71
2022/09/03 06:36:33;;;;;;;0.20;0.20;;;19.90;99.90;21.70;100873.00;;;;5029037;28;20579;-71
2022/09/03 06:39:00;;;;;;;0.10;0.10;;;20.20;99.90;21.90;100918.00;;;;5011890;28;20219;-72
2022/09/03 06:41:30;;;;;;;0.20;0.20;;;20.20;99.90;21.60;100912.00;;;;5013061;28;20186;-71
2022/09/03 06:44:02;;;;;;;0.10;0.10;;;20.40;99.90;21.80;100927.00;;;;4994674;28;20180;-72
2022/09/03 06:46:31;;;;;;;0.20;0.20;;;20.30;99.90;21.40;100923.00;;;;5013469;28;20184;-72
2022/09/03 06:48:57;;;;;;;0.10;0.10;;;20.10;99.90;20.80;100923.00;;;;5012281;28;20672;-69
2022/09/03 06:51:26;;;;;;;4.33;1.53;;;19.80;99.90;20.90;100902.00;;;;5012120;28;20166;-72
2022/09/03 06:53:59;;;;;;;0.63;0.33;;;19.70;99.90;21.10;100940.00;;;;5013066;28;20201;-72
2022/09/03 06:56:25;;;;;;;0.10;0.10;;;19.70;99.90;20.60;100927.00;;;;5015774;28;20230;-72
2022/09/03 06:58:55;;;;;;;0.10;0.10;;;19.60;99.90;20.70;100937.00;;;;5015928;28;20184;-73
2022/09/03 07:01:32;;;;;;;0.40;0.40;;;19.60;99.90;21.50;100913.00;;;;5016031;28;20217;-72
2022/09/03 07:04:01;;;;;;;0.10;0.10;;;19.80;99.90;20.80;100931.00;;;;5015407;28;20228;-72
2022/09/03 07:06:35;;;;;;;0.17;0.17;;;19.70;99.90;21.30;100953.00;;;;5016067;28;20178;-72
2022/09/03 07:09:02;;;;;;;0.10;0.10;;;19.80;99.90;21.00;100954.00;;;;5015727;28;20209;-72
2022/09/03 07:11:32;;;;;;;0.50;0.50;;;19.80;99.90;21.10;100949.00;;;;5015682;28;20269;-72
2022/09/03 07:13:59;;;;;;;0.30;0.30;;;19.90;99.90;20.80;100959.00;;;;5031953;28;20199;-73
2022/09/03 07:16:33;;;;;;;0.20;0.20;;;19.80;99.90;21.30;100952.00;;;;5015635;28;20186;-72
2022/09/03 07:19:03;;;;;;;0.10;0.10;;;19.80;99.90;21.30;100965.00;;;;5012327;28;20541;-73
2022/09/03 07:21:32;;;;;;;0.33;0.33;;;19.90;99.90;21.70;100972.00;;;;4997475;28;20183;-72
2022/09/03 07:24:02;;;;;;;0.37;0.20;;;20.20;99.90;20.70;100920.00;;;;5005197;28;20194;-72
2022/09/03 07:26:34;;;;;;;0.60;0.60;;;19.90;99.90;21.20;100964.00;;;;5015636;28;20186;-73
2022/09/03 07:29:00;;;;;;;0.53;0.53;;;19.90;99.90;20.90;100938.00;;;;5015601;28;20201;-73
2022/09/03 07:31:30;;;;;;;0.47;0.47;;;19.80;99.90;21.00;100964.00;;;;5015273;28;20240;-73
2022/09/03 07:34:11;;;;;;;0.83;0.83;;;19.80;99.90;20.90;100959.00;;;;5015397;28;20186;-72
2022/09/03 07:36:46;;;;;;;0.10;0.10;;;19.70;99.90;21.10;100958.00;;;;5015423;28;20769;-70
2022/09/03 07:39:16;;;;;;;0.20;0.20;;;19.90;99.90;21.40;100965.00;;;;5015182;28;20215;-72
2022/09/03 07:41:44;;;;;;;0.10;0.10;;;20.10;99.90;21.40;100965.00;;;;5015569;28;20553;-72
2022/09/03 07:44:18;;;;;;;0.43;0.43;;;20.10;99.90;21.70;100958.00;;;;5015411;28;20336;-72
2022/09/03 07:46:46;;;;;;;0.30;0.30;;;20.40;99.90;21.10;100957.00;;;;5015137;28;20711;-72
2022/09/03 07:49:12;;;;;;;0.60;0.47;;;20.20;99.90;20.60;100964.00;;;;5016279;28;20183;-72
2022/09/03 07:51:45;;;;;;;0.57;0.57;;;19.90;99.90;20.20;100945.00;;;;5014813;28;20562;-72
2022/09/03 07:54:13;;;;;;;0.25;0.25;;;19.70;99.90;20.60;100910.00;;;;5014953;28;20159;-72
2022/09/03 07:56:42;;;;;;;0.45;0.45;;;19.80;99.90;21.30;100950.00;;;;5014829;28;20190;-72
2022/09/03 07:59:08;;;;;;;0.10;0.10;;;19.90;99.90;21.40;100966.00;;;;5016308;28;20198;-75
2022/09/03 08:01:37;;;;;;;0.70;0.30;;;20.10;99.90;21.90;100980.00;;;;5014889;28;20210;-71
2022/09/03 08:04:09;;;;;;;0.10;0.10;;;20.40;99.90;22.50;100975.00;;;;5015519;28;20176;-81
2022/09/03 08:06:36;;;;;;;0.10;0.10;;;20.80;99.90;22.20;100985.00;;;;5014640;28;20265;-72
2022/09/03 08:09:06;;;;;;;0.10;0.10;;;20.90;99.90;21.50;100971.00;;;;5014144;28;20660;-76
2022/09/03 08:11:36;;;;;;;0.20;0.20;;;20.70;99.90;22.40;100984.00;;;;5010812;28;20195;-83
2022/09/03 08:14:08;;;;;;;0.45;0.45;;;20.80;99.90;22.30;100979.00;;;;4981647;28;20192;-75
2022/09/03 08:16:41;;;;;;;0.30;0.30;;;20.80;99.90;22.00;100967.00;;;;4994374;28;20602;-78
2022/09/03 08:19:07;;;;;;;0.10;0.10;;;20.80;99.90;22.10;100962.00;;;;4994809;28;20661;-74
2022/09/03 08:21:34;;;;;;;0.10;0.10;;;20.80;99.90;22.60;100972.00;;;;5010760;28;20262;-75
2022/09/03 08:24:03;;;;;;;0.10;0.10;;;21.10;99.90;22.70;100954.00;;;;5014452;28;20187;-73
2022/09/03 08:26:32;;;;;;;0.50;0.50;;;21.30;99.90;23.10;100971.00;;;;5015849;28;20195;-72
2022/09/03 08:28:59;;;;;;;0.20;0.20;;;21.60;99.90;22.60;100974.00;;;;5013561;28;20686;-75
2022/09/03 08:31:26;;;;;;;2.95;2.70;;;21.60;99.90;22.60;100983.00;;;;5013533;28;20167;-75
2022/09/03 08:33:55;;;;;;;0.20;0.20;;;21.50;99.90;22.90;100980.00;;;;5013534;28;20218;-78
2022/09/03 08:36:31;;;;;;;0.32;0.32;;;21.70;99.90;22.80;100979.00;;;;5036880;22;20717;-71
2022/09/03 08:39:17;;;;;;;0.10;0.10;;;21.70;99.90;22.80;100979.00;;;;5034393;28;20159;-72
2022/09/03 08:42:13;;;;;;;0.20;0.20;;;21.80;99.90;24.60;100984.00;;;;5026961;28;20658;-75
2022/09/03 08:45:18;;;;;;;0.13;0.13;;;22.80;99.90;25.10;100994.00;;;;5033039;28;20190;-75
2022/09/03 08:48:00;;;;;;;0.30;0.30;;;23.60;99.90;25.50;100997.00;;;;5017685;28;20271;-74
2022/09/03 08:51:09;;;;;;;0.20;0.20;;;24.50;99.90;24.70;101000.00;;;;5033747;28;20175;-65
2022/09/03 08:54:07;;;;;;;0.30;0.30;;;23.80;99.90;25.30;101000.00;;;;5034661;28;20298;-70
2022/09/03 08:56:49;;;;;;;0.40;0.40;;;24.20;99.90;26.00;101005.00;;;;5025382;28;20191;-72
2022/09/03 08:59:23;;;;;;;0.10;0.10;;;24.60;99.90;25.90;100996.00;;;;5033812;28;20228;-69
2022/09/03 09:02:43;;;;;;;0.28;0.28;;;24.60;99.90;26.60;100996.00;;;;5034996;28;20171;-68
2022/09/03 09:06:00;;;;;;;0.10;0.10;;;25.00;99.90;26.40;101001.00;;;;5011858;28;20199;-69
2022/09/03 09:09:00;;;;;;;0.10;0.10;;;25.00;99.90;25.80;101007.00;;;;5018333;28;20186;-73
2022/09/03 09:11:58;;;;;;;0.10;0.10;;;24.70;99.90;25.60;101010.00;;;;5033219;28;20194;-76
2022/09/03 09:14:52;;;;;;;0.20;0.20;;;24.50;99.90;25.30;101015.00;;;;5033457;28;20201;-76
2022/09/03 09:17:53;;;;;;;0.10;0.10;;;24.30;99.90;26.40;101008.00;;;;5033216;28;20187;-76
2022/09/03 09:20:40;;;;;;;1.75;1.65;;;24.60;99.90;25.90;101015.00;;;;5045119;28;20535;-75
2022/09/03 09:23:50;;;;;;;0.10;0.10;;;24.60;99.90;25.20;101009.00;;;;5053286;28;20194;-75
2022/09/03 09:26:40;;;;;;;0.22;0.22;;;24.40;99.90;25.10;101008.00;;;;5050002;28;20197;-75
2022/09/03 09:29:09;;;;;;;0.10;0.10;;;24.10;99.90;25.50;100916.00;;;;5053014;28;20181;-75
2022/09/03 09:31:37;;;;;;;0.15;0.15;;;24.20;99.90;26.70;101012.00;;;;5052766;28;20182;-75
2022/09/03 09:34:05;;;;;;;0.10;0.10;;;24.70;99.90;26.40;101020.00;;;;5052728;28;20182;-75
2022/09/03 09:36:54;;;;;;;0.13;0.13;;;25.10;99.90;26.50;101026.00;;;;5035877;28;20182;-76
2022/09/03 09:39:22;;;;;;;0.10;0.10;;;25.10;99.90;25.70;101006.00;;;;5047877;28;20659;-76
2022/09/03 09:42:10;;;;;;;0.10;0.10;;;24.90;99.90;26.00;101001.00;;;;5035809;28;20200;-73
2022/09/03 09:44:48;;;;;;;0.52;0.20;;;25.00;99.90;26.60;101024.00;;;;5032691;28;20178;-78
2022/09/03 15:35:39;;;;;;;0.65;0.65;;;26.40;99.90;27.20;101008.00;;;;5070329;28;20560;-70
2022/09/03 15:38:19;;;;;;;1.13;0.35;;;26.40;99.90;27.30;100985.00;;;;5032521;28;20317;-70
2022/09/03 15:40:45;;;;;;;1.40;0.52;;;26.30;99.90;26.90;101006.00;;;;5048797;28;20177;-74
2022/09/03 15:43:24;;;;;;;0.10;0.10;;;26.00;99.90;26.60;100988.00;;;;5049023;28;20542;-73
2022/09/03 15:46:12;;;;;;;0.57;0.57;;;25.90;99.90;26.00;101005.00;;;;5048849;28;20174;-70
2022/09/03 15:49:44;;;;;;;0.32;0.32;;;25.60;99.90;26.10;101010.00;;;;5049037;28;20190;-71
2022/09/03 15:52:39;;;;;;;0.10;0.10;;;25.00;99.90;26.10;101006.00;;;;5053285;28;20193;-70
2022/09/03 15:55:32;;;;;;;0.13;0.13;;;25.00;99.90;26.10;100998.00;;;;5048237;28;20214;-69
2022/09/03 15:58:44;;;;;;;0.73;0.73;;;25.10;99.90;25.90;100961.00;;;;5049061;28;20290;-76
2022/09/03 16:01:26;;;;;;;1.05;1.05;;;25.10;99.90;25.90;101007.00;;;;5049109;28;20174;-73
2022/09/03 16:03:54;;;;;;;0.22;0.22;;;25.00;99.90;26.10;101014.00;;;;5049194;28;20183;-70
2022/09/03 16:07:00;;;;;;;0.10;0.10;;;25.00;99.90;26.20;100978.00;;;;5049937;28;20288;-72
2022/09/03 16:09:42;;;;;;;0.10;0.10;;;25.10;99.90;26.70;101017.00;;;;5048668;28;20181;-76
2022/09/03 16:12:33;;;;;;;0.20;0.20;;;25.20;99.90;26.60;101019.00;;;;5048497;28;20186;-71
2022/09/03 16:15:09;;;;;;;0.10;0.10;;;25.40;99.90;26.40;101022.00;;;;5048466;28;20289;-69
2022/09/03 16:17:49;;;;;;;0.75;0.75;;;25.40;99.90;26.90;101015.00;;;;5049281;28;20202;-73
2022/09/03 16:20:35;;;;;;;0.10;0.10;;;25.60;99.90;26.80;101028.00;;;;5049783;28;20178;-70
2022/09/03 16:23:10;;;;;;;0.10;0.10;;;25.50;99.90;27.20;101028.00;;;;5048461;28;20178;-72
2022/09/03 16:25:51;;;;;;;0.43;0.43;;;25.70;99.90;27.70;100997.00;;;;5047090;28;20193;-73
2022/09/03 16:28:31;;;;;;;0.10;0.10;;;26.10;99.90;27.30;101004.00;;;;5047336;28;20185;-75
2022/09/03 16:31:21;;;;;;;0.10;0.10;;;25.90;99.90;27.50;101041.00;;;;5048192;28;20179;-71
2022/09/03 16:34:22;;;;;;;0.10;0.10;;;26.00;99.90;28.00;101036.00;;;;5048211;28;20269;-72
2022/09/03 16:37:19;;;;;;;0.10;0.10;;;26.20;99.90;28.40;101006.00;;;;5030455;28;20221;-72
2022/09/03 16:40:13;;;;;;;0.10;0.10;;;26.50;99.90;27.30;101039.00;;;;5026520;28;20190;-74
2022/09/03 16:43:01;;;;;;;0.10;0.10;;;26.40;99.90;27.20;101030.00;;;;5047789;28;20189;-72
2022/09/03 16:46:17;;;;;;;0.20;0.20;;;26.10;99.90;27.80;101011.00;;;;5041168;28;20186;-70
2022/09/03 16:49:33;;;;;;;0.10;0.10;;;26.10;99.90;27.50;101002.00;;;;5034663;28;20191;-79
2022/09/03 16:52:41;;;;;;;0.20;0.20;;;26.20;99.90;27.30;101016.00;;;;5034973;28;20183;-72
2022/09/03 16:55:37;;;;;;;0.10;0.10;;;26.10;99.90;27.20;101020.00;;;;5033269;28;20207;-73
2022/09/03 16:58:09;;;;;;;0.10;0.10;;;26.00;99.90;27.20;101029.00;;;;5035032;28;20202;-72
2022/09/03 17:01:15;;;;;;;0.10;0.10;;;25.90;99.90;26.90;101033.00;;;;5034694;28;20217;-72
2022/09/03 17:04:24;;;;;;;0.10;0.10;;;25.70;99.90;27.20;101031.00;;;;5031570;28;20721;-71
2022/09/03 17:07:17;;;;;;;0.10;0.10;;;25.70;99.90;27.40;101041.00;;;;5033616;28;20197;-71
2022/09/03 17:10:17;;;;;;;0.10;0.10;;;25.80;99.90;27.60;101041.00;;;;5035011;28;20197;-71
2022/09/03 17:13:13;;;;;;;0.10;0.10;;;26.10;99.90;27.80;101035.00;;;;5033402;28;20187;-72
2022/09/03 17:16:16;;;;;;;0.10;0.10;;;26.10;99.90;28.60;101049.00;;;;5033603;28;20670;-72
2022/09/03 17:19:14;;;;;;;0.10;0.10;;;26.50;99.90;28.70;101054.00;;;;5035395;28;20582;-72
2022/09/03 17:22:23;;;;;;;0.10;0.10;;;26.90;99.90;27.70;101062.00;;;;5022727;28;20650;-71
2022/09/03 17:25:02;;;;;;;0.13;0.13;;;26.60;99.90;27.70;101070.00;;;;5034376;28;20186;-71
2022/09/03 17:28:24;;;;;;;0.10;0.10;;;26.30;99.90;27.40;101062.00;;;;5035158;28;20194;-71
2022/09/03 17:30:57;;;;;;;0.10;0.10;;;26.10;99.90;27.30;101066.00;;;;5034875;28;20233;-71